createdAt,value
2022-12-25T00:01:05.773Z,13.73
2022-12-25T00:02:07.374Z,19.48
2022-12-25T00:03:09.227Z,21.58
2022-12-25T00:04:10.843Z,47.17
2022-12-25T00:05:12.454Z,21.42
2022-12-25T00:06:14.626Z,23.83
2022-12-25T00:07:16.188Z,39.88
2022-12-25T00:08:17.925Z,61.00
2022-12-25T00:09:19.470Z,129.75
2022-12-25T00:10:22.714Z,37.65
2022-12-25T00:11:24.236Z,130.88
2022-12-25T00:12:25.759Z,170.27
2022-12-25T00:13:27.612Z,146.13
2022-12-25T00:14:29.109Z,73.25
2022-12-25T00:15:30.595Z,31.23
2022-12-25T00:16:32.232Z,62.85
2022-12-25T00:17:33.930Z,56.60
2022-12-25T00:18:35.753Z,81.85
2022-12-25T00:19:37.330Z,130.05
2022-12-25T00:20:38.839Z,122.20
2022-12-25T00:21:40.394Z,342.98
2022-12-25T00:22:41.877Z,491.45
2022-12-25T00:23:44.017Z,526.50
2022-12-25T00:24:47.552Z,755.72
2022-12-25T00:25:50.517Z,755.42
2022-12-25T00:26:52.314Z,548.15
2022-12-25T00:27:53.810Z,737.00
2022-12-25T00:28:56.847Z,713.55
2022-12-25T00:29:58.352Z,715.50
2022-12-25T00:30:59.991Z,892.50
2022-12-25T00:32:01.570Z,713.05
2022-12-25T00:33:03.118Z,801.53
2022-12-25T00:34:04.626Z,810.42
2022-12-25T00:35:06.860Z,873.58
2022-12-25T00:36:09.867Z,694.08
2022-12-25T00:37:11.406Z,795.63
2022-12-25T00:38:12.921Z,756.05
2022-12-25T00:39:14.420Z,748.20
2022-12-25T00:40:15.887Z,709.03
2022-12-25T00:41:21.011Z,674.13
2022-12-25T00:42:22.487Z,759.90
2022-12-25T00:43:24.073Z,811.05
2022-12-25T00:44:25.644Z,570.00
2022-12-25T00:45:27.205Z,539.10
2022-12-25T00:46:28.823Z,552.10
2022-12-25T00:47:30.351Z,539.13
2022-12-25T00:48:32.690Z,683.78
2022-12-25T00:49:34.253Z,486.15
2022-12-25T00:50:37.909Z,604.30
2022-12-25T00:51:39.746Z,537.08
2022-12-25T00:52:41.297Z,516.88
2022-12-25T00:53:42.781Z,386.77
2022-12-25T00:54:44.361Z,449.75
2022-12-25T00:55:50.943Z,507.27
2022-12-25T00:56:53.775Z,626.92
2022-12-25T00:57:55.240Z,430.85
2022-12-25T00:58:56.720Z,649.67
2022-12-25T00:59:58.192Z,523.33
2022-12-25T01:00:59.897Z,511.73
2022-12-25T01:02:01.980Z,495.13
2022-12-25T01:03:03.862Z,413.13
2022-12-25T01:04:06.059Z,480.45
2022-12-25T01:05:09.990Z,547.72
2022-12-25T01:06:12.040Z,272.30
2022-12-25T01:07:13.634Z,145.75
2022-12-25T01:08:15.131Z,211.25
2022-12-25T01:09:16.652Z,91.68
2022-12-25T01:10:18.161Z,46.40
2022-12-25T01:11:19.636Z,43.17
2022-12-25T01:12:22.520Z,43.85
2022-12-25T01:13:24.889Z,31.10
2022-12-25T01:14:26.371Z,35.17
2022-12-25T01:15:27.917Z,37.85
2022-12-25T01:16:29.990Z,36.05
2022-12-25T01:17:31.525Z,42.75
2022-12-25T01:18:33.086Z,41.35
2022-12-25T01:19:34.642Z,40.58
2022-12-25T01:20:36.164Z,36.60
2022-12-25T01:21:37.707Z,40.80
2022-12-25T01:22:39.219Z,39.47
2022-12-25T01:23:40.676Z,39.03
2022-12-25T01:24:42.230Z,29.60
2022-12-25T01:25:43.720Z,32.25
2022-12-25T01:26:45.224Z,31.38
2022-12-25T01:27:48.069Z,34.55
2022-12-25T01:28:50.190Z,31.15
2022-12-25T01:29:51.710Z,29.70
2022-12-25T01:30:53.198Z,32.72
2022-12-25T01:31:54.717Z,27.77
2022-12-25T01:32:56.311Z,45.13
2022-12-25T01:33:57.783Z,31.98
2022-12-25T01:34:59.675Z,44.35
2022-12-25T01:36:01.327Z,34.30
2022-12-25T01:37:02.820Z,38.92
2022-12-25T01:38:04.285Z,36.72
2022-12-25T01:39:05.933Z,40.25
2022-12-25T01:40:08.581Z,40.85
2022-12-25T01:41:11.146Z,43.80
2022-12-25T01:42:16.877Z,36.70
2022-12-25T01:43:23.887Z,37.55
2022-12-25T01:45:02.783Z,30.98
2022-12-25T01:46:04.654Z,34.50
2022-12-25T01:47:07.308Z,42.50
2022-12-25T01:48:14.593Z,32.05
2022-12-25T01:49:20.898Z,29.48
2022-12-25T01:50:22.826Z,27.88
2022-12-25T01:51:28.083Z,29.63
2022-12-25T01:52:29.638Z,32.60
2022-12-25T01:53:31.548Z,28.65
2022-12-25T01:54:36.230Z,30.00
2022-12-25T01:55:39.183Z,22.15
2022-12-25T01:56:43.505Z,24.52
2022-12-25T01:57:45.938Z,25.83
2022-12-25T01:58:48.988Z,24.58
2022-12-25T01:59:50.673Z,26.92
2022-12-25T02:00:52.824Z,27.13
2022-12-25T02:01:54.690Z,25.45
2022-12-25T02:02:57.414Z,30.08
2022-12-25T02:04:05.584Z,28.25
2022-12-25T02:05:11.935Z,27.73
2022-12-25T02:06:13.573Z,25.42
2022-12-25T02:07:17.633Z,22.27
2022-12-25T02:08:21.798Z,21.10
2022-12-25T02:09:23.331Z,24.60
2022-12-25T02:10:25.064Z,22.35
2022-12-25T02:11:26.582Z,27.30
2022-12-25T02:12:30.505Z,23.25
2022-12-25T02:13:32.109Z,25.83
2022-12-25T02:14:37.062Z,24.20
2022-12-25T02:15:45.673Z,23.58
2022-12-25T02:16:57.982Z,16.60
2022-12-25T02:18:06.947Z,22.63
2022-12-25T02:19:21.507Z,18.98
2022-12-25T02:20:43.689Z,20.02
2022-12-25T02:22:05.283Z,16.50
2022-12-25T02:23:30.836Z,20.25
2022-12-25T02:24:48.466Z,20.05
2022-12-25T02:26:12.437Z,20.08
2022-12-25T02:27:22.344Z,21.20
2022-12-25T02:28:27.917Z,31.73
2022-12-25T02:29:36.630Z,30.23
2022-12-25T02:30:44.229Z,36.20
2022-12-25T02:31:50.845Z,35.80
2022-12-25T02:32:58.773Z,39.95
2022-12-25T02:34:08.741Z,38.55
2022-12-25T02:35:15.462Z,35.83
2022-12-25T02:36:22.831Z,39.83
2022-12-25T02:37:28.623Z,36.17
2022-12-25T02:38:33.404Z,50.47
2022-12-25T02:39:55.442Z,53.85
2022-12-25T02:41:02.109Z,151.65
2022-12-25T02:42:08.808Z,393.73
2022-12-25T02:43:17.715Z,91.53
2022-12-25T02:44:23.166Z,57.08
2022-12-25T02:45:32.308Z,86.15
2022-12-25T02:46:34.214Z,63.35
2022-12-25T02:47:38.155Z,190.45
2022-12-25T02:48:44.918Z,175.05
2022-12-25T02:49:47.330Z,149.43
2022-12-25T02:50:50.027Z,295.02
2022-12-25T02:51:57.236Z,418.02
2022-12-25T02:53:01.248Z,48.40
2022-12-25T02:54:06.289Z,74.97
2022-12-25T02:55:12.730Z,38.22
2022-12-25T02:56:14.620Z,39.75
2022-12-25T02:57:18.519Z,31.13
2022-12-25T02:58:23.039Z,32.67
2022-12-25T02:59:28.911Z,38.35
2022-12-25T03:00:32.370Z,30.50
2022-12-25T03:01:36.428Z,34.17
2022-12-25T03:02:41.954Z,31.65
2022-12-25T03:03:46.867Z,33.97
2022-12-25T03:04:51.127Z,30.35
2022-12-25T03:05:57.405Z,27.92
2022-12-25T03:07:04.682Z,33.92
2022-12-25T03:08:09.966Z,39.60
2022-12-25T03:09:15.882Z,43.05
2022-12-25T03:10:20.955Z,73.32
2022-12-25T03:11:22.481Z,52.45
2022-12-25T03:12:34.459Z,70.22
2022-12-25T03:13:39.687Z,100.88
2022-12-25T03:14:42.696Z,84.85
2022-12-25T03:15:45.228Z,58.22
2022-12-25T03:16:48.781Z,110.97
2022-12-25T03:17:50.637Z,87.50
2022-12-25T03:18:54.032Z,75.93
2022-12-25T03:19:55.603Z,63.17
2022-12-25T03:20:57.268Z,48.92
2022-12-25T03:21:58.822Z,54.22
2022-12-25T03:23:01.157Z,68.25
2022-12-25T03:24:02.648Z,55.95
2022-12-25T03:25:04.908Z,45.17
2022-12-25T03:26:07.310Z,51.20
2022-12-25T03:27:08.804Z,41.47
2022-12-25T03:28:10.275Z,56.30
2022-12-25T03:29:11.954Z,79.40
2022-12-25T03:30:15.040Z,72.68
2022-12-25T03:31:21.341Z,106.95
2022-12-25T03:32:33.744Z,88.88
2022-12-25T03:33:46.000Z,109.15
2022-12-25T03:34:54.919Z,193.25
2022-12-25T03:36:01.523Z,199.18
2022-12-25T03:37:14.749Z,322.35
2022-12-25T03:38:23.089Z,408.45
2022-12-25T03:39:33.629Z,403.60
2022-12-25T03:40:42.605Z,252.63
2022-12-25T03:41:47.699Z,248.68
2022-12-25T03:42:56.075Z,235.00
2022-12-25T03:44:07.505Z,297.00
2022-12-25T03:46:17.667Z,364.67
2022-12-25T03:47:24.628Z,324.13
2022-12-25T03:48:28.462Z,380.50
2022-12-25T03:49:37.531Z,328.98
2022-12-25T03:50:43.794Z,430.08
2022-12-25T03:51:47.708Z,473.38
2022-12-25T03:52:51.240Z,474.80
2022-12-25T03:53:57.805Z,424.83
2022-12-25T03:55:03.522Z,513.35
2022-12-25T03:56:06.160Z,470.50
2022-12-25T03:57:08.885Z,533.50
2022-12-25T03:58:17.652Z,553.47
2022-12-25T03:59:23.853Z,616.38
2022-12-25T04:00:25.701Z,603.80
2022-12-25T04:01:28.611Z,583.83
2022-12-25T04:02:30.486Z,608.25
2022-12-25T04:03:32.293Z,733.42
2022-12-25T04:04:33.881Z,648.95
2022-12-25T04:05:35.369Z,721.58
2022-12-25T04:06:37.253Z,671.67
2022-12-25T04:07:38.959Z,585.45
2022-12-25T04:08:40.421Z,629.83
2022-12-25T04:09:41.913Z,617.30
2022-12-25T04:10:43.426Z,504.67
2022-12-25T04:11:44.992Z,505.95
2022-12-25T04:12:46.475Z,551.88
2022-12-25T04:13:48.013Z,707.08
2022-12-25T04:14:49.502Z,545.13
2022-12-25T04:15:51.486Z,568.08
2022-12-25T04:16:54.340Z,529.35
2022-12-25T04:17:55.858Z,550.97
2022-12-25T04:18:57.405Z,545.38
2022-12-25T04:19:58.895Z,640.40
2022-12-25T04:21:00.400Z,580.22
2022-12-25T04:22:01.909Z,583.00
2022-12-25T04:23:03.425Z,477.08
2022-12-25T04:24:06.007Z,604.78
2022-12-25T04:25:07.866Z,596.85
2022-12-25T04:26:09.425Z,505.33
2022-12-25T04:27:10.904Z,625.05
2022-12-25T04:28:12.389Z,546.83
2022-12-25T04:29:13.897Z,530.90
2022-12-25T04:30:15.603Z,514.40
2022-12-25T04:31:17.160Z,639.10
2022-12-25T04:32:20.046Z,527.38
2022-12-25T04:33:21.554Z,606.55
2022-12-25T04:34:23.075Z,625.05
2022-12-25T04:35:24.674Z,614.95
2022-12-25T04:36:26.154Z,564.88
2022-12-25T04:37:27.651Z,610.88
2022-12-25T04:38:29.146Z,654.33
2022-12-25T04:39:30.675Z,600.80
2022-12-25T04:40:32.165Z,648.50
2022-12-25T04:41:33.656Z,634.25
2022-12-25T04:42:35.129Z,497.75
2022-12-25T04:43:36.838Z,693.33
2022-12-25T04:44:38.419Z,779.75
2022-12-25T04:45:39.977Z,706.55
2022-12-25T04:46:41.536Z,648.78
2022-12-25T04:47:44.407Z,642.75
2022-12-25T04:48:45.929Z,621.30
2022-12-25T04:49:47.417Z,636.95
2022-12-25T04:50:49.257Z,722.67
2022-12-25T04:51:50.823Z,653.88
2022-12-25T04:52:52.310Z,653.75
2022-12-25T04:53:54.547Z,667.83
2022-12-25T04:56:22.033Z,549.47
2022-12-25T04:57:23.553Z,516.10
2022-12-25T04:58:25.077Z,537.80
2022-12-25T04:59:26.608Z,590.10
2022-12-25T05:00:28.135Z,551.47
2022-12-25T05:01:29.878Z,633.28
2022-12-25T05:02:31.720Z,573.25
2022-12-25T05:03:35.520Z,639.75
2022-12-25T05:04:37.075Z,633.95
2022-12-25T05:05:39.577Z,601.67
2022-12-25T05:06:41.105Z,535.50
2022-12-25T05:07:42.664Z,653.13
2022-12-25T05:08:44.177Z,606.97
2022-12-25T05:09:45.734Z,547.70
2022-12-25T05:10:47.552Z,550.00
2022-12-25T05:11:49.041Z,413.38
2022-12-25T05:12:50.565Z,576.33
2022-12-25T05:13:52.272Z,520.88
2022-12-25T05:14:53.791Z,536.95
2022-12-25T05:15:55.391Z,639.58
2022-12-25T05:16:56.952Z,466.90
2022-12-25T05:17:58.449Z,491.58
2022-12-25T05:19:01.281Z,551.05
2022-12-25T05:20:03.347Z,587.35
2022-12-25T05:21:05.262Z,535.95
2022-12-25T05:22:06.761Z,557.25
2022-12-25T05:23:10.455Z,613.85
2022-12-25T05:24:11.979Z,555.20
2022-12-25T05:25:13.640Z,588.03
2022-12-25T05:26:16.951Z,632.83
2022-12-25T05:27:18.437Z,708.67
2022-12-25T05:28:19.914Z,756.10
2022-12-25T05:29:21.523Z,675.55
2022-12-25T05:30:23.065Z,748.33
2022-12-25T05:31:24.669Z,793.30
2022-12-25T05:32:26.179Z,702.83
2022-12-25T05:33:27.762Z,647.33
2022-12-25T05:34:30.712Z,688.88
2022-12-25T05:35:32.250Z,571.92
2022-12-25T05:36:33.749Z,684.28
2022-12-25T05:37:35.828Z,601.65
2022-12-25T05:38:38.000Z,647.00
2022-12-25T05:39:39.496Z,578.38
2022-12-25T05:40:40.995Z,581.33
2022-12-25T05:41:42.571Z,502.65
2022-12-25T05:42:44.171Z,524.58
2022-12-25T05:43:45.776Z,538.13
2022-12-25T05:44:47.291Z,660.90
2022-12-25T05:45:48.789Z,739.83
2022-12-25T05:46:50.324Z,670.78
2022-12-25T05:47:52.496Z,710.85
2022-12-25T05:48:53.974Z,668.08
2022-12-25T05:49:56.793Z,716.25
2022-12-25T05:50:58.272Z,766.50
2022-12-25T05:51:59.781Z,731.10
2022-12-25T05:53:07.725Z,539.70
2022-12-25T05:54:09.672Z,504.63
2022-12-25T05:55:11.205Z,499.10
2022-12-25T05:56:12.900Z,540.83
2022-12-25T05:57:14.411Z,552.90
2022-12-25T05:58:15.902Z,610.88
2022-12-25T05:59:17.443Z,603.83
2022-12-25T06:00:20.053Z,620.97
2022-12-25T06:01:23.652Z,632.53
2022-12-25T06:02:25.786Z,543.47
2022-12-25T06:03:27.604Z,532.30
2022-12-25T06:04:44.238Z,556.03
2022-12-25T06:05:47.103Z,639.08
2022-12-25T06:06:49.803Z,608.25
2022-12-25T06:07:51.336Z,612.17
2022-12-25T06:08:53.816Z,537.92
2022-12-25T06:09:55.344Z,509.60
2022-12-25T06:10:56.861Z,538.60
2022-12-25T06:11:58.484Z,503.00
2022-12-25T06:12:59.956Z,488.13
2022-12-25T06:14:01.474Z,551.40
2022-12-25T06:15:03.210Z,574.78
2022-12-25T06:16:05.648Z,567.95
2022-12-25T06:17:07.191Z,546.65
2022-12-25T06:18:08.955Z,481.80
2022-12-25T06:19:10.515Z,449.98
2022-12-25T06:20:12.049Z,549.20
2022-12-25T06:21:15.860Z,517.63
2022-12-25T06:22:17.354Z,516.85
2022-12-25T06:23:24.805Z,451.50
2022-12-25T06:24:26.349Z,524.28
2022-12-25T06:25:27.887Z,531.67
2022-12-25T06:26:29.385Z,580.45
2022-12-25T06:27:30.900Z,646.72
2022-12-25T06:28:32.411Z,564.90
2022-12-25T06:29:33.928Z,510.17
2022-12-25T06:30:41.160Z,496.77
2022-12-25T06:31:42.703Z,577.05
2022-12-25T06:32:44.351Z,529.90
2022-12-25T06:33:46.198Z,523.33
2022-12-25T06:34:47.728Z,419.35
2022-12-25T06:35:49.250Z,473.65
2022-12-25T06:36:52.104Z,532.05
2022-12-25T06:37:53.654Z,585.72
2022-12-25T06:38:55.344Z,549.42
2022-12-25T06:39:56.895Z,582.83
2022-12-25T06:41:03.801Z,555.05
2022-12-25T06:42:05.351Z,599.88
2022-12-25T06:43:06.848Z,563.28
2022-12-25T06:44:08.964Z,630.55
2022-12-25T06:45:11.139Z,674.85
2022-12-25T06:46:12.964Z,525.53
2022-12-25T06:47:14.553Z,651.22
2022-12-25T06:48:16.075Z,576.17
2022-12-25T06:49:17.611Z,415.77
2022-12-25T06:50:19.110Z,525.35
2022-12-25T06:51:22.489Z,493.30
2022-12-25T06:52:25.291Z,512.72
2022-12-25T06:53:26.816Z,506.20
2022-12-25T06:54:28.434Z,472.88
2022-12-25T06:55:29.945Z,461.77
2022-12-25T06:56:33.272Z,397.60
2022-12-25T06:57:34.796Z,440.98
2022-12-25T06:58:36.533Z,506.15
2022-12-25T06:59:38.041Z,427.05
2022-12-25T07:00:39.584Z,434.10
2022-12-25T07:01:46.200Z,420.45
2022-12-25T07:02:49.576Z,351.23
2022-12-25T07:03:54.605Z,362.95
2022-12-25T07:05:05.676Z,366.80
2022-12-25T07:06:07.254Z,316.00
2022-12-25T07:07:09.800Z,254.75
2022-12-25T07:08:12.826Z,371.98
2022-12-25T07:09:14.330Z,214.88
2022-12-25T07:10:15.839Z,181.07
2022-12-25T07:11:18.059Z,225.35
2022-12-25T07:12:21.721Z,124.70
2022-12-25T07:13:23.218Z,120.63
2022-12-25T07:14:24.877Z,131.45
2022-12-25T07:15:26.422Z,66.00
2022-12-25T07:16:27.994Z,77.72
2022-12-25T07:17:29.597Z,69.95
2022-12-25T07:18:49.739Z,87.88
2022-12-25T07:19:51.258Z,135.63
2022-12-25T07:20:52.876Z,228.05
2022-12-25T07:21:54.406Z,291.55
2022-12-25T07:22:55.938Z,263.75
2022-12-25T07:23:58.789Z,203.63
2022-12-25T07:25:00.301Z,152.13
2022-12-25T07:26:02.323Z,175.07
2022-12-25T07:27:03.967Z,173.30
2022-12-25T07:28:05.560Z,234.73
2022-12-25T07:29:07.052Z,196.10
2022-12-25T07:30:09.735Z,125.05
2022-12-25T07:31:13.764Z,114.70
2022-12-25T07:32:15.391Z,59.55
2022-12-25T07:33:17.343Z,53.40
2022-12-25T07:34:19.147Z,52.25
2022-12-25T07:35:20.597Z,49.75
2022-12-25T07:36:22.099Z,47.67
2022-12-25T07:37:23.618Z,39.95
2022-12-25T07:38:25.283Z,40.67
2022-12-25T07:39:28.285Z,77.68
2022-12-25T07:40:30.101Z,46.83
2022-12-25T07:41:31.646Z,45.45
2022-12-25T07:42:33.176Z,41.88
2022-12-25T07:43:34.703Z,43.55
2022-12-25T07:44:36.233Z,41.63
2022-12-25T07:45:37.764Z,31.70
2022-12-25T07:46:39.370Z,40.78
2022-12-25T07:47:40.894Z,34.33
2022-12-25T07:48:42.374Z,32.70
2022-12-25T07:50:02.308Z,36.65
2022-12-25T07:51:05.804Z,42.00
2022-12-25T07:52:07.303Z,48.03
2022-12-25T07:53:08.801Z,47.95
2022-12-25T07:54:10.345Z,50.10
2022-12-25T07:55:36.967Z,41.08
2022-12-25T07:56:38.475Z,35.30
2022-12-25T07:57:40.130Z,39.10
2022-12-25T07:58:41.959Z,38.13
2022-12-25T07:59:43.469Z,38.65
2022-12-25T08:00:45.008Z,38.42
2022-12-25T08:01:49.153Z,39.80
2022-12-25T08:02:51.080Z,31.25
2022-12-25T08:03:54.506Z,36.10
2022-12-25T08:04:56.183Z,33.22
2022-12-25T08:05:59.887Z,33.92
2022-12-25T08:07:01.415Z,33.78
2022-12-25T08:08:02.948Z,29.80
2022-12-25T08:09:06.541Z,30.42
2022-12-25T08:10:08.532Z,23.60
2022-12-25T08:11:11.389Z,28.38
2022-12-25T08:12:12.902Z,27.85
2022-12-25T08:13:14.900Z,28.95
2022-12-25T08:14:16.583Z,26.92
2022-12-25T08:15:18.099Z,23.52
2022-12-25T08:16:19.621Z,24.60
2022-12-25T08:17:21.183Z,24.67
2022-12-25T08:18:29.414Z,25.77
2022-12-25T08:19:31.599Z,23.30
2022-12-25T08:20:34.483Z,25.77
2022-12-25T08:21:36.374Z,49.03
2022-12-25T08:22:37.924Z,32.45
2022-12-25T08:23:41.906Z,30.20
2022-12-25T08:24:43.446Z,19.40
2022-12-25T08:25:45.020Z,18.90
2022-12-25T08:26:48.306Z,18.70
2022-12-25T08:27:49.793Z,16.75
2022-12-25T08:28:51.736Z,20.35
2022-12-25T08:29:53.320Z,19.48
2022-12-25T08:30:54.865Z,16.58
2022-12-25T08:31:56.628Z,16.67
2022-12-25T08:33:02.117Z,15.63
2022-12-25T08:34:04.815Z,14.15
2022-12-25T08:35:07.396Z,15.07
2022-12-25T08:36:10.952Z,11.73
2022-12-25T08:37:12.499Z,11.75
2022-12-25T08:38:14.132Z,13.10
2022-12-25T08:39:24.544Z,13.93
2022-12-25T08:40:26.926Z,15.80
2022-12-25T08:41:28.452Z,13.95
2022-12-25T08:42:31.610Z,11.52
2022-12-25T08:43:33.128Z,13.13
2022-12-25T08:44:34.643Z,11.32
2022-12-25T08:45:36.139Z,10.52
2022-12-25T08:46:37.694Z,9.00
2022-12-25T08:47:39.209Z,11.68
2022-12-25T08:48:42.240Z,10.20
2022-12-25T08:49:43.737Z,11.07
2022-12-25T08:50:46.027Z,14.10
2022-12-25T08:51:47.549Z,14.38
2022-12-25T08:52:49.260Z,20.20
2022-12-25T08:53:52.259Z,28.52
2022-12-25T08:54:53.756Z,15.05
2022-12-25T08:56:07.917Z,14.68
2022-12-25T08:57:09.428Z,11.45
2022-12-25T08:58:12.584Z,10.80
2022-12-25T08:59:14.145Z,11.10
2022-12-25T09:00:16.392Z,11.35
2022-12-25T09:01:17.976Z,12.48
2022-12-25T09:02:19.688Z,12.50
2022-12-25T09:03:21.401Z,10.35
2022-12-25T09:04:23.001Z,13.65
2022-12-25T09:05:24.531Z,9.60
2022-12-25T09:06:26.018Z,11.65
2022-12-25T09:07:27.581Z,10.27
2022-12-25T09:08:29.103Z,10.20
2022-12-25T09:09:30.636Z,9.20
2022-12-25T09:10:35.218Z,8.57
2022-12-25T09:11:36.906Z,10.07
2022-12-25T09:12:39.022Z,14.50
2022-12-25T09:13:42.092Z,18.20
2022-12-25T09:14:43.661Z,16.50
2022-12-25T09:15:45.243Z,14.40
2022-12-25T09:16:46.781Z,13.23
2022-12-25T09:17:48.395Z,13.02
2022-12-25T09:18:50.080Z,14.68
2022-12-25T09:19:51.610Z,12.50
2022-12-25T09:20:59.817Z,14.20
2022-12-25T09:22:01.286Z,12.20
2022-12-25T09:23:03.681Z,11.18
2022-12-25T09:24:08.252Z,13.68
2022-12-25T09:25:10.058Z,11.27
2022-12-25T09:26:14.186Z,12.48
2022-12-25T09:27:15.957Z,11.90
2022-12-25T09:28:17.442Z,11.50
2022-12-25T09:29:20.292Z,10.93
2022-12-25T09:30:21.957Z,9.88
2022-12-25T09:31:23.852Z,10.15
2022-12-25T09:32:25.381Z,9.57
2022-12-25T09:33:27.077Z,9.35
2022-12-25T09:34:28.582Z,8.85
2022-12-25T09:35:30.050Z,9.48
2022-12-25T09:36:31.531Z,10.80
2022-12-25T09:37:33.057Z,21.58
2022-12-25T09:38:35.987Z,8.38
2022-12-25T09:39:42.295Z,8.90
2022-12-25T09:40:47.699Z,10.57
2022-12-25T09:41:54.788Z,7.80
2022-12-25T09:42:56.840Z,6.43
2022-12-25T09:44:02.327Z,6.15
2022-12-25T09:45:11.453Z,5.40
2022-12-25T09:46:17.149Z,5.28
2022-12-25T09:47:22.016Z,5.68
2022-12-25T09:48:24.391Z,6.05
2022-12-25T09:49:35.681Z,5.20
2022-12-25T09:50:43.586Z,5.22
2022-12-25T09:51:48.452Z,4.20
2022-12-25T09:52:55.041Z,4.95
2022-12-25T09:54:04.353Z,4.47
2022-12-25T09:55:17.874Z,4.65
2022-12-25T09:56:24.189Z,4.15
2022-12-25T09:57:26.470Z,4.80
2022-12-25T09:58:30.233Z,6.88
2022-12-25T09:59:31.801Z,4.78
2022-12-25T10:00:40.613Z,4.82
2022-12-25T10:01:55.712Z,4.70
2022-12-25T10:03:17.761Z,3.15
2022-12-25T10:04:41.980Z,3.20
2022-12-25T10:06:16.412Z,2.83
2022-12-25T10:07:26.994Z,2.90
2022-12-25T10:08:46.272Z,2.83
2022-12-25T10:09:59.756Z,2.60
2022-12-25T10:11:10.535Z,2.67
2022-12-25T10:12:29.476Z,3.75
2022-12-25T10:13:45.208Z,2.75
2022-12-25T10:15:00.980Z,2.88
2022-12-25T10:16:17.373Z,2.90
2022-12-25T10:17:32.968Z,2.53
2022-12-25T10:18:47.155Z,3.60
2022-12-25T10:19:59.669Z,2.47
2022-12-25T10:21:09.377Z,3.88
2022-12-25T10:22:19.317Z,2.95
2022-12-25T10:23:26.114Z,3.85
2022-12-25T10:24:33.959Z,2.42
2022-12-25T10:25:38.654Z,4.65
2022-12-25T10:26:40.426Z,2.95
2022-12-25T10:27:42.973Z,2.67
2022-12-25T10:28:46.795Z,2.90
2022-12-25T10:29:53.309Z,3.70
2022-12-25T10:31:01.954Z,3.08
2022-12-25T10:32:05.003Z,4.93
2022-12-25T10:33:06.512Z,3.63
2022-12-25T10:34:12.316Z,2.65
2022-12-25T10:35:16.415Z,3.03
2022-12-25T10:36:19.896Z,3.20
2022-12-25T10:37:21.406Z,2.67
2022-12-25T10:38:22.894Z,2.60
2022-12-25T10:39:26.356Z,3.13
2022-12-25T10:40:40.504Z,2.97
2022-12-25T10:42:01.764Z,4.10
2022-12-25T10:43:10.987Z,2.92
2022-12-25T10:44:13.964Z,3.85
2022-12-25T10:45:15.591Z,3.83
2022-12-25T10:46:21.344Z,3.05
2022-12-25T10:47:26.667Z,3.42
2022-12-25T10:48:30.002Z,4.63
2022-12-25T10:49:35.171Z,2.63
2022-12-25T10:50:42.840Z,2.83
2022-12-25T10:51:44.384Z,2.92
2022-12-25T10:52:56.019Z,3.10
2022-12-25T10:53:57.864Z,2.88
2022-12-25T10:55:11.294Z,2.88
2022-12-25T10:56:17.717Z,2.53
2022-12-25T10:57:21.088Z,2.88
2022-12-25T10:58:22.601Z,2.42
2022-12-25T10:59:25.011Z,2.83
2022-12-25T11:00:28.988Z,2.97
2022-12-25T11:01:30.644Z,2.25
2022-12-25T11:02:39.111Z,2.25
2022-12-25T11:03:44.871Z,2.45
2022-12-25T11:04:46.766Z,2.10
2022-12-25T11:05:50.259Z,1.92
2022-12-25T11:07:01.290Z,2.58
2022-12-25T11:08:03.703Z,2.10
2022-12-25T11:09:05.371Z,2.22
2022-12-25T11:10:21.036Z,1.60
2022-12-25T11:11:23.211Z,2.10
2022-12-25T11:12:30.766Z,1.52
2022-12-25T11:13:34.705Z,1.55
2022-12-25T11:14:37.206Z,1.58
2022-12-25T11:15:41.929Z,1.75
2022-12-25T11:16:43.583Z,1.73
2022-12-25T11:17:49.557Z,1.27
2022-12-25T11:18:53.114Z,1.30
2022-12-25T11:19:55.965Z,1.50
2022-12-25T11:20:59.387Z,1.30
2022-12-25T11:22:02.417Z,1.38
2022-12-25T11:23:10.086Z,1.30
2022-12-25T11:24:19.905Z,1.48
2022-12-25T11:25:23.989Z,1.50
2022-12-25T11:26:26.274Z,1.40
2022-12-25T11:27:30.064Z,1.80
2022-12-25T11:28:33.981Z,1.48
2022-12-25T11:29:41.418Z,1.95
2022-12-25T11:30:43.060Z,2.35
2022-12-25T11:31:46.344Z,1.50
2022-12-25T11:32:52.752Z,1.40
2022-12-25T11:33:59.092Z,1.27
2022-12-25T11:35:02.392Z,1.27
2022-12-25T11:36:25.227Z,1.25
2022-12-25T11:37:33.868Z,1.30
2022-12-25T11:38:35.373Z,2.92
2022-12-25T11:39:39.955Z,1.20
2022-12-25T11:40:46.753Z,1.08
2022-12-25T11:41:50.777Z,1.67
2022-12-25T11:42:55.679Z,1.33
2022-12-25T11:44:00.931Z,2.00
2022-12-25T11:45:06.747Z,1.38
2022-12-25T11:46:14.828Z,1.30
2022-12-25T11:47:21.658Z,2.28
2022-12-25T11:48:29.568Z,2.67
2022-12-25T11:49:45.865Z,14.90
2022-12-25T11:50:55.324Z,2.08
2022-12-25T11:52:03.098Z,2.05
2022-12-25T11:53:07.194Z,2.22
2022-12-25T11:54:17.652Z,1.75
2022-12-25T11:55:24.013Z,1.30
2022-12-25T11:56:28.166Z,1.85
2022-12-25T11:57:31.104Z,1.33
2022-12-25T11:58:36.113Z,2.35
2022-12-25T11:59:47.388Z,1.88
2022-12-25T12:00:52.061Z,1.33
2022-12-25T12:01:58.789Z,1.95
2022-12-25T12:03:06.755Z,2.13
2022-12-25T12:04:17.263Z,1.40
2022-12-25T12:05:23.407Z,2.65
2022-12-25T12:06:29.836Z,1.73
2022-12-25T12:07:32.932Z,1.13
2022-12-25T12:08:36.078Z,1.52
2022-12-25T12:09:48.380Z,1.70
2022-12-25T12:11:04.574Z,1.63
2022-12-25T12:12:11.463Z,1.85
2022-12-25T12:13:24.099Z,2.47
2022-12-25T12:14:40.642Z,1.88
2022-12-25T12:15:44.932Z,1.50
2022-12-25T12:16:46.581Z,3.28
2022-12-25T12:17:48.177Z,1.70
2022-12-25T12:18:50.796Z,1.65
2022-12-25T12:19:53.856Z,1.80
2022-12-25T12:21:01.392Z,2.13
2022-12-25T12:22:04.263Z,2.15
2022-12-25T12:23:15.513Z,1.83
2022-12-25T12:24:20.740Z,3.35
2022-12-25T12:25:22.882Z,6.43
2022-12-25T12:26:26.647Z,2.35
2022-12-25T12:27:34.720Z,4.97
2022-12-25T12:28:44.864Z,3.58
2022-12-25T12:29:50.762Z,1.85
2022-12-25T12:31:01.766Z,2.15
2022-12-25T12:32:05.645Z,2.40
2022-12-25T12:33:08.110Z,3.08
2022-12-25T12:34:21.671Z,1.90
2022-12-25T12:35:28.541Z,2.05
2022-12-25T12:36:36.300Z,1.67
2022-12-25T12:37:40.854Z,2.00
2022-12-25T12:38:44.046Z,2.22
2022-12-25T12:39:50.923Z,1.60
2022-12-25T12:40:55.812Z,1.85
2022-12-25T12:41:57.395Z,1.92
2022-12-25T12:42:59.695Z,1.77
2022-12-25T12:44:05.022Z,1.40
2022-12-25T12:45:09.256Z,1.60
2022-12-25T12:46:17.767Z,1.40
2022-12-25T12:47:29.383Z,1.60
2022-12-25T12:49:39.095Z,1.52
2022-12-25T12:50:42.767Z,5.90
2022-12-25T12:51:44.441Z,4.32
2022-12-25T12:52:46.073Z,1.98
2022-12-25T12:53:47.585Z,1.38
2022-12-25T12:55:04.035Z,1.88
2022-12-25T12:56:13.933Z,1.75
2022-12-25T12:57:23.528Z,1.30
2022-12-25T12:58:28.437Z,2.05
2022-12-25T12:59:38.178Z,3.15
2022-12-25T13:00:46.548Z,2.42
2022-12-25T13:01:55.911Z,1.63
2022-12-25T13:03:25.237Z,1.55
2022-12-25T13:04:46.139Z,1.42
2022-12-25T13:05:53.664Z,1.53
2022-12-25T13:07:04.141Z,1.70
2022-12-25T13:08:21.291Z,1.63
2022-12-25T13:11:14.004Z,4.00
2022-12-25T13:12:17.069Z,2.25
2022-12-25T13:13:23.133Z,3.58
2022-12-25T13:14:25.011Z,7.28
2022-12-25T13:15:30.177Z,2.40
2022-12-25T13:16:36.075Z,2.60
2022-12-25T13:17:37.743Z,2.25
2022-12-25T13:18:39.935Z,2.80
2022-12-25T13:19:43.102Z,2.28
2022-12-25T13:20:48.225Z,3.22
2022-12-25T13:21:56.100Z,2.10
2022-12-25T13:22:57.620Z,2.13
2022-12-25T13:24:00.860Z,1.73
2022-12-25T13:25:04.874Z,1.98
2022-12-25T13:26:12.925Z,1.90
2022-12-25T13:27:22.141Z,2.20
2022-12-25T13:28:28.287Z,2.28
2022-12-25T13:29:30.798Z,2.13
2022-12-25T13:30:32.339Z,2.00
2022-12-25T13:31:33.979Z,2.58
2022-12-25T13:32:35.783Z,2.60
2022-12-25T13:33:38.401Z,2.45
2022-12-25T13:34:41.855Z,3.53
2022-12-25T13:35:43.628Z,3.13
2022-12-25T13:36:45.139Z,2.95
2022-12-25T13:37:48.524Z,3.85
2022-12-25T13:38:52.346Z,2.50
2022-12-25T13:39:56.183Z,3.97
2022-12-25T13:40:58.613Z,3.63
2022-12-25T13:42:00.365Z,3.40
2022-12-25T13:43:02.348Z,2.67
2022-12-25T13:44:11.891Z,2.85
2022-12-25T13:45:22.156Z,2.75
2022-12-25T13:46:25.987Z,3.97
2022-12-25T13:47:31.397Z,2.42
2022-12-25T13:48:33.199Z,4.35
2022-12-25T13:49:36.590Z,3.88
2022-12-25T13:50:38.732Z,3.03
2022-12-25T13:51:40.312Z,2.95